Time;durP1;ratioP1;P1;durP2;ratioP2;P2;SDS_P1;SDS_P2;PMS_P1;PMS_P2;Temp;Humidity;BMP_temperature;BMP_pressure;BME280_temperature;BME280_humidity;BME280_pressure;Samples;Min_cycle;Max_cycle;Signal;HPM_P1;HPM_P2
2021/05/21 00:01:41;;;;;;;3.80;1.90;;;12.30;99.90;;;;;;5017325;28;20056;-68
2021/05/21 00:04:08;;;;;;;4.95;2.60;;;12.20;99.90;;;;;;5017205;28;21407;-67
2021/05/21 00:06:34;;;;;;;5.32;2.30;;;12.20;99.90;;;;;;5017826;28;20053;-67
2021/05/21 00:09:02;;;;;;;4.43;1.95;;;12.20;99.90;;;;;;5018330;28;20279;-67
2021/05/21 00:11:29;;;;;;;6.10;2.13;;;12.10;99.90;;;;;;5020372;28;20052;-67
2021/05/21 00:13:55;;;;;;;4.32;2.10;;;12.10;99.90;;;;;;5018185;28;20501;-67
2021/05/21 00:16:22;;;;;;;6.40;2.60;;;12.10;99.90;;;;;;5019727;28;20465;-66
2021/05/21 00:18:51;;;;;;;3.55;2.20;;;12.10;99.90;;;;;;5016181;28;20063;-67
2021/05/21 00:21:17;;;;;;;4.72;2.67;;;12.10;99.90;;;;;;5012754;28;20132;-67
2021/05/21 00:23:44;;;;;;;5.55;2.38;;;12.10;99.90;;;;;;5014172;28;20504;-67
2021/05/21 00:26:12;;;;;;;4.10;2.35;;;12.00;99.90;;;;;;5016019;28;20494;-67
2021/05/21 00:28:38;;;;;;;4.63;2.10;;;11.90;99.90;;;;;;5010523;28;20060;-67
2021/05/21 00:31:05;;;;;;;4.72;2.20;;;11.90;99.90;;;;;;5013156;28;20045;-67
2021/05/21 00:33:32;;;;;;;5.20;2.10;;;11.90;99.90;;;;;;5014710;28;20085;-67
2021/05/21 00:35:58;;;;;;;7.80;2.05;;;11.80;99.90;;;;;;5014774;28;20072;-67
2021/05/21 00:38:25;;;;;;;5.05;2.10;;;11.80;99.90;;;;;;5014693;28;20920;-67
2021/05/21 00:40:52;;;;;;;4.25;2.30;;;11.80;99.90;;;;;;5015480;28;20487;-67
2021/05/21 00:43:19;;;;;;;5.28;2.85;;;11.70;99.90;;;;;;5014684;28;20497;-67
2021/05/21 00:45:45;;;;;;;6.93;3.15;;;11.60;99.90;;;;;;5014031;28;20899;-66
2021/05/21 00:48:12;;;;;;;7.22;3.38;;;11.50;99.90;;;;;;5017410;28;20056;-67
2021/05/21 00:50:42;;;;;;;6.78;3.33;;;11.50;99.90;;;;;;5018385;28;20057;-66
2021/05/21 00:53:11;;;;;;;6.30;3.40;;;11.50;99.90;;;;;;5016144;28;20056;-67
2021/05/21 00:55:37;;;;;;;5.75;2.67;;;11.40;99.90;;;;;;5018573;28;20049;-66
2021/05/21 00:58:05;;;;;;;8.23;3.25;;;11.40;99.90;;;;;;5018900;28;20044;-67
2021/05/21 01:00:33;;;;;;;6.13;3.15;;;11.40;99.90;;;;;;5016212;28;20064;-67
2021/05/21 01:02:59;;;;;;;5.95;3.22;;;11.30;99.90;;;;;;5016790;28;20752;-67
2021/05/21 01:05:26;;;;;;;6.05;3.70;;;11.40;99.90;;;;;;5018874;28;20045;-67
2021/05/21 01:07:53;;;;;;;5.95;3.20;;;11.30;99.90;;;;;;5017048;28;20098;-66
2021/05/21 01:10:20;;;;;;;5.90;3.17;;;11.30;99.90;;;;;;5015194;28;20049;-66
2021/05/21 01:12:46;;;;;;;4.60;2.65;;;11.30;99.90;;;;;;5015200;28;20048;-67
2021/05/21 01:15:15;;;;;;;4.72;2.67;;;11.20;99.90;;;;;;5014192;28;20049;-66
2021/05/21 01:17:42;;;;;;;7.05;3.10;;;11.30;99.90;;;;;;5014549;28;20065;-66
2021/05/21 01:20:11;;;;;;;4.70;2.42;;;11.30;99.90;;;;;;5015216;28;20055;-67
2021/05/21 01:22:39;;;;;;;8.32;2.83;;;11.20;99.90;;;;;;5016101;28;20060;-67
2021/05/21 01:25:07;;;;;;;3.80;2.25;;;11.20;99.90;;;;;;5016840;28;20052;-67
2021/05/21 01:27:33;;;;;;;5.32;2.63;;;11.30;99.90;;;;;;5018027;28;20048;-66
2021/05/21 01:30:00;;;;;;;4.00;2.13;;;11.30;99.90;;;;;;5018922;28;20433;-66
2021/05/21 01:32:27;;;;;;;4.90;2.25;;;11.20;99.90;;;;;;5018995;28;20507;-66
2021/05/21 01:34:53;;;;;;;4.70;2.50;;;11.30;99.90;;;;;;5019184;28;20053;-67
2021/05/21 01:37:22;;;;;;;5.22;2.28;;;11.20;99.90;;;;;;5017517;28;20062;-67
2021/05/21 01:39:51;;;;;;;6.32;2.92;;;11.20;99.90;;;;;;5020212;28;20107;-67
2021/05/21 01:42:18;;;;;;;4.93;2.28;;;11.20;99.90;;;;;;5018302;28;20371;-66
2021/05/21 01:44:45;;;;;;;5.07;2.53;;;11.20;99.90;;;;;;5019298;28;20096;-67
2021/05/21 01:47:13;;;;;;;6.18;2.60;;;11.20;99.90;;;;;;5017748;28;20434;-67
2021/05/21 01:49:40;;;;;;;7.70;2.42;;;11.20;99.90;;;;;;5018381;28;20123;-66
2021/05/21 01:52:07;;;;;;;4.93;2.50;;;11.20;99.90;;;;;;5017775;28;20052;-67
2021/05/21 01:54:35;;;;;;;9.55;2.75;;;11.20;99.90;;;;;;5014236;28;20052;-67
2021/05/21 01:57:04;;;;;;;5.05;2.65;;;11.20;99.90;;;;;;5014849;28;20072;-67
2021/05/21 01:59:30;;;;;;;6.85;3.28;;;11.20;99.90;;;;;;5014409;28;20053;-67
2021/05/21 02:01:57;;;;;;;4.70;2.78;;;11.10;99.90;;;;;;5015996;28;20049;-67
2021/05/21 02:04:28;;;;;;;5.45;3.25;;;11.10;99.90;;;;;;5013050;28;20460;-67
2021/05/21 02:06:55;;;;;;;6.55;2.88;;;11.10;99.90;;;;;;5014658;28;20053;-67
2021/05/21 02:09:22;;;;;;;6.03;3.20;;;11.10;99.90;;;;;;5014635;28;20061;-67
2021/05/21 02:11:49;;;;;;;7.07;3.50;;;11.10;99.90;;;;;;5016464;28;20053;-67
2021/05/21 02:14:16;;;;;;;6.13;3.45;;;11.00;99.90;;;;;;5014075;28;20053;-67
2021/05/21 02:16:43;;;;;;;6.88;3.45;;;11.00;99.90;;;;;;5014973;28;20515;-67
2021/05/21 02:19:10;;;;;;;8.13;3.47;;;11.10;99.90;;;;;;5015310;28;20067;-66
2021/05/21 02:21:39;;;;;;;7.00;3.22;;;11.10;99.90;;;;;;5019740;28;20049;-67
2021/05/21 02:24:06;;;;;;;9.57;3.78;;;11.10;99.90;;;;;;5020078;28;20065;-66
2021/05/21 02:26:34;;;;;;;5.95;3.35;;;11.10;99.90;;;;;;5018338;28;20421;-66
2021/05/21 02:29:01;;;;;;;8.05;3.30;;;11.20;99.90;;;;;;5017167;28;20049;-66
2021/05/21 02:31:28;;;;;;;8.20;3.50;;;11.20;99.90;;;;;;5015485;28;20049;-67
2021/05/21 02:33:55;;;;;;;6.93;3.50;;;11.10;99.90;;;;;;5017617;28;20578;-67
2021/05/21 02:36:21;;;;;;;8.65;3.70;;;11.10;99.90;;;;;;5017200;28;20470;-67
2021/05/21 02:38:48;;;;;;;5.38;3.30;;;11.00;99.90;;;;;;5022624;28;20506;-67
2021/05/21 02:41:15;;;;;;;6.15;3.50;;;11.10;99.90;;;;;;5023088;28;20493;-67
2021/05/21 02:43:41;;;;;;;7.95;3.58;;;11.20;99.90;;;;;;5021116;28;20216;-66
2021/05/21 02:46:08;;;;;;;6.15;3.00;;;11.10;99.90;;;;;;5018973;28;20465;-66
2021/05/21 02:48:35;;;;;;;8.88;3.88;;;11.00;99.90;;;;;;5017500;28;20050;-66
2021/05/21 02:51:02;;;;;;;8.60;3.70;;;10.90;99.90;;;;;;5017588;28;20053;-67
2021/05/21 02:53:29;;;;;;;6.68;3.20;;;10.90;99.90;;;;;;5019398;28;20084;-66
2021/05/21 02:55:55;;;;;;;9.43;4.03;;;10.90;99.90;;;;;;5018761;28;20059;-66
2021/05/21 02:58:22;;;;;;;7.03;3.75;;;10.90;99.90;;;;;;5016892;28;20501;-67
2021/05/21 03:00:49;;;;;;;6.68;3.33;;;10.90;99.90;;;;;;5017418;28;20592;-67
2021/05/21 03:03:15;;;;;;;6.40;3.40;;;10.80;99.90;;;;;;5020372;28;20257;-67
2021/05/21 03:05:43;;;;;;;7.53;3.53;;;10.80;99.90;;;;;;5018486;28;20726;-67
2021/05/21 03:08:10;;;;;;;7.22;3.83;;;10.80;99.90;;;;;;5016453;28;20407;-66
2021/05/21 03:10:37;;;;;;;6.63;3.33;;;10.70;99.90;;;;;;5019561;28;20623;-66
2021/05/21 03:13:04;;;;;;;7.05;3.75;;;10.70;99.90;;;;;;5017544;28;20057;-66
2021/05/21 03:15:31;;;;;;;7.32;3.30;;;10.70;99.90;;;;;;5017847;28;20072;-67
2021/05/21 03:17:59;;;;;;;6.32;3.20;;;10.60;99.90;;;;;;5017945;28;20095;-67
2021/05/21 03:20:25;;;;;;;6.45;3.58;;;10.60;99.90;;;;;;5016086;28;20172;-67
2021/05/21 03:22:53;;;;;;;6.68;3.35;;;10.60;99.90;;;;;;5018398;28;20057;-67
2021/05/21 03:25:20;;;;;;;6.80;3.60;;;10.60;99.90;;;;;;5019473;28;20405;-66
2021/05/21 03:27:46;;;;;;;5.72;3.30;;;10.60;99.90;;;;;;5017949;28;20136;-67
2021/05/21 03:30:14;;;;;;;6.35;2.80;;;10.60;99.90;;;;;;5018308;28;20049;-67
2021/05/21 03:32:40;;;;;;;4.50;2.50;;;10.60;99.90;;;;;;5017469;28;20053;-67
2021/05/21 03:35:08;;;;;;;5.05;2.90;;;10.70;99.90;;;;;;5018346;28;20377;-67
2021/05/21 03:37:35;;;;;;;6.78;3.03;;;10.70;99.90;;;;;;5015323;28;20104;-66
2021/05/21 03:40:02;;;;;;;5.75;2.90;;;10.80;99.90;;;;;;5015541;28;20573;-67
2021/05/21 03:42:29;;;;;;;5.50;2.70;;;10.70;99.90;;;;;;5014958;28;20609;-67
2021/05/21 03:44:55;;;;;;;5.28;2.40;;;10.80;99.90;;;;;;5017836;28;20091;-67
2021/05/21 03:47:23;;;;;;;;;;;10.80;99.90;;;;;;5017677;28;20111;-67
2021/05/21 03:49:50;;;;;;;6.22;2.50;;;10.80;99.90;;;;;;5017268;28;19925;-67
2021/05/21 03:52:16;;;;;;;5.40;2.75;;;10.80;99.90;;;;;;5017458;28;20064;-67
2021/05/21 03:54:43;;;;;;;6.07;2.30;;;10.80;99.90;;;;;;5016539;28;20053;-66
2021/05/21 03:57:10;;;;;;;7.55;2.35;;;10.80;99.90;;;;;;5017188;28;20086;-67
2021/05/21 03:59:37;;;;;;;6.40;2.20;;;10.90;99.90;;;;;;5015685;28;20071;-66
2021/05/21 04:02:04;;;;;;;3.58;2.15;;;10.90;99.90;;;;;;5017412;28;20402;-67
2021/05/21 04:04:30;;;;;;;9.10;2.58;;;10.90;99.90;;;;;;5021493;28;20053;-66
2021/05/21 04:06:57;;;;;;;4.75;2.15;;;10.90;99.90;;;;;;5024948;28;20056;-67
2021/05/21 04:09:23;;;;;;;7.00;2.40;;;10.90;99.90;;;;;;5022287;28;20662;-66
2021/05/21 04:11:50;;;;;;;;;;;10.90;99.90;;;;;;5018233;28;20049;-66
2021/05/21 04:14:17;;;;;;;4.75;2.13;;;11.00;99.90;;;;;;5017823;28;19924;-67
2021/05/21 04:16:44;;;;;;;5.13;2.42;;;11.00;99.90;;;;;;5017239;28;20515;-67
2021/05/21 04:19:10;;;;;;;4.07;1.85;;;11.00;99.90;;;;;;5014671;28;20083;-66
2021/05/21 04:21:37;;;;;;;3.75;1.70;;;11.00;99.90;;;;;;5016967;28;20052;-66
2021/05/21 04:24:04;;;;;;;5.97;2.53;;;11.10;99.90;;;;;;5015729;28;20111;-66
2021/05/21 04:26:31;;;;;;;5.28;2.38;;;11.10;99.90;;;;;;5018371;28;20071;-66
2021/05/21 04:28:57;;;;;;;6.20;2.00;;;11.10;99.90;;;;;;5014183;28;20493;-67
2021/05/21 04:31:25;;;;;;;4.60;2.08;;;11.20;99.90;;;;;;5016785;28;20049;-66
2021/05/21 04:33:52;;;;;;;4.57;2.17;;;11.20;99.90;;;;;;5017195;28;20091;-67
2021/05/21 04:36:19;;;;;;;4.13;2.20;;;11.20;99.90;;;;;;5015715;28;20497;-67
2021/05/21 04:38:45;;;;;;;6.28;2.00;;;11.20;99.90;;;;;;5015541;28;20061;-66
2021/05/21 04:41:12;;;;;;;3.90;2.00;;;11.20;99.90;;;;;;5016807;28;20434;-66
2021/05/21 04:43:38;;;;;;;4.40;2.08;;;11.10;99.90;;;;;;5016312;28;20064;-67
2021/05/21 04:46:06;;;;;;;4.68;2.17;;;11.20;99.90;;;;;;5018259;28;20087;-67
2021/05/21 04:48:34;;;;;;;4.38;1.65;;;11.20;99.90;;;;;;5019082;28;20071;-67
2021/05/21 04:51:01;;;;;;;4.45;1.83;;;11.20;99.90;;;;;;5019774;28;20501;-67
2021/05/21 04:53:27;;;;;;;5.47;2.00;;;11.30;99.90;;;;;;5021472;28;20053;-66
2021/05/21 04:55:54;;;;;;;3.97;1.88;;;11.30;99.90;;;;;;5023410;28;20061;-66
2021/05/21 04:58:20;;;;;;;5.75;2.05;;;11.30;99.90;;;;;;5019051;28;20053;-67
2021/05/21 05:00:47;;;;;;;3.78;2.03;;;11.40;99.90;;;;;;5021224;28;20082;-66
2021/05/21 05:03:17;;;;;;;3.67;2.00;;;11.40;99.90;;;;;;5018118;28;20634;-66
2021/05/21 05:05:45;;;;;;;3.38;1.80;;;11.40;99.90;;;;;;5018240;28;20072;-66
2021/05/21 05:08:14;;;;;;;5.50;2.03;;;11.50;99.90;;;;;;5020230;28;20140;-66
2021/05/21 05:10:41;;;;;;;4.13;2.10;;;11.50;99.90;;;;;;5020540;28;20048;-67
2021/05/21 05:13:07;;;;;;;4.10;1.70;;;11.50;99.90;;;;;;5017117;28;20127;-67
2021/05/21 05:15:35;;;;;;;3.75;1.85;;;11.60;99.90;;;;;;5015084;28;20061;-66
2021/05/21 05:18:02;;;;;;;3.42;1.60;;;11.70;99.90;;;;;;5013659;28;20076;-66
2021/05/21 05:20:29;;;;;;;3.45;1.75;;;11.70;99.90;;;;;;5014872;28;20044;-67
2021/05/21 05:22:57;;;;;;;3.72;1.92;;;11.80;99.90;;;;;;5012113;28;20065;-67
2021/05/21 05:25:24;;;;;;;4.00;1.90;;;11.90;99.90;;;;;;5015793;28;20052;-67
2021/05/21 05:27:51;;;;;;;4.35;1.55;;;12.00;99.90;;;;;;5015730;28;20048;-67
2021/05/21 05:30:19;;;;;;;5.82;1.80;;;12.10;99.90;;;;;;5013336;28;20092;-68
2021/05/21 05:32:46;;;;;;;3.70;1.80;;;12.00;99.90;;;;;;5013437;28;20126;-67
2021/05/21 05:35:13;;;;;;;5.50;2.03;;;12.10;99.90;;;;;;5015463;28;20509;-67
2021/05/21 05:37:40;;;;;;;2.97;1.65;;;12.20;99.90;;;;;;5014631;28;20233;-66
2021/05/21 05:40:09;;;;;;;4.65;1.80;;;12.30;99.90;;;;;;5019800;28;20476;-67
2021/05/21 05:42:35;;;;;;;7.38;2.03;;;12.40;99.90;;;;;;5017135;28;20048;-67
2021/05/21 05:45:03;;;;;;;3.85;1.58;;;12.50;99.90;;;;;;5017812;28;20050;-67
2021/05/21 05:47:29;;;;;;;3.40;1.63;;;12.40;99.90;;;;;;5017035;28;20045;-67
2021/05/21 05:49:56;;;;;;;2.97;1.73;;;12.40;99.90;;;;;;5016308;28;20457;-67
2021/05/21 05:52:23;;;;;;;5.00;2.08;;;12.50;99.90;;;;;;5017475;28;20045;-67
2021/05/21 05:54:49;;;;;;;3.80;1.58;;;12.50;99.90;;;;;;5020508;28;20413;-67
2021/05/21 05:57:17;;;;;;;5.43;1.80;;;12.50;99.90;;;;;;5024243;28;20506;-67
2021/05/21 05:59:43;;;;;;;3.83;2.00;;;12.50;99.90;;;;;;5021970;28;20134;-67
2021/05/21 06:02:09;;;;;;;;;;;12.50;99.90;;;;;;5020779;28;20057;-68
2021/05/21 06:04:36;;;;;;;3.28;1.60;;;12.60;99.90;;;;;;5022013;28;20653;-68
2021/05/21 06:07:03;;;;;;;3.08;1.60;;;12.60;99.90;;;;;;5019697;28;20456;-67
2021/05/21 06:09:29;;;;;;;4.43;1.60;;;12.60;99.90;;;;;;5018946;28;20049;-67
2021/05/21 06:11:56;;;;;;;3.17;1.90;;;12.70;99.90;;;;;;5018534;28;20167;-67
2021/05/21 06:14:24;;;;;;;4.13;1.75;;;12.60;99.90;;;;;;5020660;28;20083;-67
2021/05/21 06:16:50;;;;;;;2.85;1.40;;;12.60;99.90;;;;;;5021302;28;20111;-68
2021/05/21 06:19:17;;;;;;;7.47;1.75;;;12.70;99.90;;;;;;5021437;28;21241;-67
2021/05/21 06:21:44;;;;;;;4.55;1.40;;;12.70;99.90;;;;;;5020035;28;20068;-67
2021/05/21 06:24:11;;;;;;;4.97;1.88;;;12.80;99.90;;;;;;5021892;28;20148;-68
2021/05/21 06:26:41;;;;;;;2.50;1.45;;;12.90;99.90;;;;;;5020992;28;20082;-67
2021/05/21 06:29:07;;;;;;;2.67;1.50;;;12.90;99.90;;;;;;5024759;28;20064;-67
2021/05/21 06:31:35;;;;;;;2.33;1.42;;;13.00;99.90;;;;;;5024357;28;20052;-67
2021/05/21 06:34:01;;;;;;;2.55;1.15;;;13.00;99.90;;;;;;5021967;28;20730;-67
2021/05/21 06:36:28;;;;;;;3.42;1.88;;;13.00;99.90;;;;;;5020603;28;20045;-67
2021/05/21 06:38:54;;;;;;;2.40;1.15;;;13.00;99.90;;;;;;5017502;28;20057;-67
2021/05/21 06:41:21;;;;;;;6.00;1.48;;;13.10;99.90;;;;;;5018519;28;20094;-67
2021/05/21 06:43:48;;;;;;;2.20;1.20;;;13.10;99.90;;;;;;5010377;28;20057;-67
2021/05/21 06:46:14;;;;;;;5.57;1.90;;;13.20;99.90;;;;;;5013787;28;20076;-68
2021/05/21 06:48:43;;;;;;;2.53;1.30;;;13.20;99.90;;;;;;5013686;28;20057;-67
2021/05/21 06:51:10;;;;;;;3.63;1.40;;;13.30;99.90;;;;;;5007840;28;20521;-67
2021/05/21 06:53:37;;;;;;;2.72;1.30;;;13.40;99.90;;;;;;5011810;28;20049;-68
2021/05/21 06:56:04;;;;;;;2.95;1.20;;;13.50;99.90;;;;;;5008998;28;20079;-68
2021/05/21 06:58:31;;;;;;;3.08;1.52;;;13.60;99.90;;;;;;5008466;28;20045;-67
2021/05/21 07:00:57;;;;;;;4.03;1.42;;;13.60;99.90;;;;;;5006135;28;20063;-68
2021/05/21 07:03:27;;;;;;;3.08;1.40;;;13.70;99.90;;;;;;5004483;28;20445;-68
2021/05/21 07:05:55;;;;;;;3.38;1.00;;;13.80;99.90;;;;;;5010222;28;20072;-67
2021/05/21 07:08:22;;;;;;;2.15;1.10;;;13.90;99.90;;;;;;5011391;28;20056;-67
2021/05/21 07:10:49;;;;;;;2.63;1.30;;;14.00;99.90;;;;;;5006707;28;20521;-68
2021/05/21 07:13:17;;;;;;;3.55;1.20;;;14.10;99.90;;;;;;5011395;28;20517;-67
2021/05/21 07:15:45;;;;;;;4.13;1.20;;;14.20;99.90;;;;;;5011397;28;20084;-67
2021/05/21 07:18:11;;;;;;;2.97;1.13;;;14.30;99.90;;;;;;5010627;28;20647;-67
2021/05/21 07:20:41;;;;;;;4.80;1.10;;;14.50;99.90;;;;;;5009826;28;20083;-67
2021/05/21 07:23:09;;;;;;;3.70;1.23;;;14.50;99.90;;;;;;5005570;28;20144;-67
2021/05/21 07:25:35;;;;;;;2.28;1.15;;;14.60;99.90;;;;;;5008343;28;20533;-67
2021/05/21 07:28:02;;;;;;;1.90;1.15;;;14.60;99.90;;;;;;5006083;28;20064;-67
2021/05/21 07:30:29;;;;;;;2.28;1.30;;;14.70;99.90;;;;;;5011250;28;20862;-68
2021/05/21 07:32:55;;;;;;;3.45;1.10;;;14.90;99.90;;;;;;5008707;28;20506;-67
2021/05/21 07:35:23;;;;;;;3.83;1.17;;;15.00;99.90;;;;;;5009912;28;20406;-68
2021/05/21 07:37:50;;;;;;;1.65;1.15;;;15.20;99.90;;;;;;5007428;28;20065;-68
2021/05/21 07:40:19;;;;;;;2.55;1.15;;;15.20;99.90;;;;;;5008253;28;20049;-67
2021/05/21 07:42:46;;;;;;;4.30;1.65;;;15.30;99.90;;;;;;5010310;28;20057;-68
2021/05/21 07:45:13;;;;;;;2.83;1.20;;;15.40;99.90;;;;;;5005204;28;20068;-67
2021/05/21 07:47:40;;;;;;;3.50;1.10;;;15.60;99.90;;;;;;5005005;28;20049;-67
2021/05/21 07:50:08;;;;;;;3.45;0.93;;;15.70;99.90;;;;;;5006643;28;20057;-67
2021/05/21 07:52:34;;;;;;;2.80;0.82;;;15.70;99.90;;;;;;5009406;28;20644;-68
2021/05/21 07:55:03;;;;;;;2.83;1.30;;;15.70;99.90;;;;;;5009828;28;20824;-68
2021/05/21 07:57:31;;;;;;;1.75;1.00;;;15.80;99.90;;;;;;5014331;28;20053;-67
2021/05/21 07:59:57;;;;;;;3.65;1.00;;;15.90;99.90;;;;;;5013475;28;20123;-68
2021/05/21 08:02:27;;;;;;;2.22;1.00;;;15.90;99.90;;;;;;5013343;28;20103;-67
2021/05/21 08:04:54;;;;;;;2.95;0.90;;;15.80;99.90;;;;;;5014389;28;20052;-67
2021/05/21 08:07:20;;;;;;;2.50;0.88;;;16.00;99.90;;;;;;5008757;28;20052;-68
2021/05/21 08:09:50;;;;;;;1.58;0.90;;;16.00;99.90;;;;;;5011146;28;20056;-67
2021/05/21 08:12:17;;;;;;;2.65;0.95;;;16.00;99.90;;;;;;5012295;28;21041;-67
2021/05/21 08:14:47;;;;;;;4.72;1.30;;;16.00;99.90;;;;;;5012815;28;20052;-67
2021/05/21 08:17:13;;;;;;;2.17;1.00;;;16.10;99.90;;;;;;5013563;28;20144;-67
2021/05/21 08:19:40;;;;;;;4.32;1.13;;;16.10;99.90;;;;;;5006827;28;20754;-68
2021/05/21 08:22:07;;;;;;;1.40;0.93;;;16.10;99.90;;;;;;5004551;28;21051;-67
2021/05/21 08:24:34;;;;;;;2.50;0.70;;;16.10;99.90;;;;;;4998585;28;20059;-67
2021/05/21 08:27:00;;;;;;;3.05;0.88;;;16.20;99.90;;;;;;4990804;28;20057;-67
2021/05/21 08:29:27;;;;;;;4.60;0.90;;;16.30;99.90;;;;;;4996585;28;20050;-69
2021/05/21 08:31:54;;;;;;;3.85;1.00;;;16.60;99.90;;;;;;5003978;28;20083;-67
2021/05/21 08:34:21;;;;;;;3.53;1.10;;;16.70;99.90;;;;;;5007224;28;20056;-67
2021/05/21 08:36:48;;;;;;;2.30;0.82;;;16.80;99.90;;;;;;5005665;28;20794;-67
2021/05/21 08:39:14;;;;;;;2.40;1.10;;;16.80;99.90;;;;;;5003300;28;21425;-67
2021/05/21 08:41:44;;;;;;;3.20;1.10;;;16.70;99.90;;;;;;5005462;28;20049;-67
2021/05/21 08:44:11;;;;;;;1.58;0.60;;;16.40;99.90;;;;;;5005528;28;20140;-67
2021/05/21 08:46:38;;;;;;;4.40;1.20;;;16.40;99.90;;;;;;5004515;28;20907;-67
2021/05/21 08:49:06;;;;;;;1.92;0.75;;;16.30;99.90;;;;;;5007251;28;20935;-67
2021/05/21 08:51:33;;;;;;;2.78;0.80;;;16.20;99.90;;;;;;5007662;28;20547;-67
2021/05/21 08:54:00;;;;;;;0.85;0.60;;;16.20;99.90;;;;;;5009012;28;20381;-67
2021/05/21 08:56:26;;;;;;;2.58;0.93;;;16.30;99.90;;;;;;5010178;28;20063;-67
2021/05/21 08:58:53;;;;;;;9.15;2.28;;;16.30;99.90;;;;;;5006733;28;20053;-67
2021/05/21 09:01:23;;;;;;;8.32;1.05;;;16.40;99.90;;;;;;5009590;28;20048;-67
2021/05/21 09:03:50;;;;;;;2.67;0.90;;;16.50;99.90;;;;;;5008944;28;20057;-66
2021/05/21 09:06:20;;;;;;;1.20;0.70;;;16.50;99.90;;;;;;5003869;28;20053;-67
2021/05/21 09:08:48;;;;;;;5.22;0.90;;;16.50;99.90;;;;;;5010482;28;20061;-68
2021/05/21 09:11:23;;;;;;;1.48;0.75;;;16.50;99.90;;;;;;5011542;28;20064;-67
2021/05/21 09:13:51;;;;;;;1.80;0.68;;;16.70;99.90;;;;;;5014773;28;20053;-67
2021/05/21 09:16:22;;;;;;;2.88;1.00;;;16.70;99.90;;;;;;5011888;28;20068;-67
2021/05/21 09:19:02;;;;;;;2.25;0.90;;;16.60;99.90;;;;;;5011683;28;20057;-67
2021/05/21 09:21:47;;;;;;;3.25;0.88;;;16.60;99.90;;;;;;5015104;28;20049;-67
2021/05/21 09:24:15;;;;;;;2.25;0.68;;;16.60;99.90;;;;;;5017440;28;20057;-67
2021/05/21 09:26:44;;;;;;;1.75;0.90;;;16.70;99.90;;;;;;5016352;28;20068;-68
2021/05/21 09:29:12;;;;;;;2.35;0.90;;;16.70;99.90;;;;;;5016186;28;20064;-67
2021/05/21 09:31:43;;;;;;;1.02;0.70;;;16.70;99.90;;;;;;5017691;28;20061;-67
2021/05/21 09:34:10;;;;;;;1.35;0.70;;;16.80;99.90;;;;;;5020120;28;20296;-67
2021/05/21 09:36:38;;;;;;;3.38;0.90;;;16.80;99.90;;;;;;5017668;28;20064;-67
2021/05/21 09:39:08;;;;;;;3.22;1.10;;;16.90;99.90;;;;;;5016741;28;21342;-66
2021/05/21 09:41:53;;;;;;;3.60;1.02;;;17.10;99.90;;;;;;5019043;28;20506;-66
2021/05/21 09:44:22;;;;;;;0.90;0.65;;;17.20;99.90;;;;;;5018672;28;20103;-66
2021/05/21 09:46:51;;;;;;;3.60;0.98;;;17.00;99.90;;;;;;5016895;28;20142;-66
2021/05/21 09:49:33;;;;;;;7.13;1.02;;;17.00;99.90;;;;;;5018442;28;20052;-67
2021/05/21 09:52:02;;;;;;;2.00;1.10;;;17.10;99.90;;;;;;5016750;28;20276;-66
2021/05/21 09:54:48;;;;;;;5.65;1.05;;;17.00;99.90;;;;;;5016816;28;20068;-66
2021/05/21 09:57:16;;;;;;;3.22;0.80;;;17.10;99.90;;;;;;5017246;28;20056;-66
2021/05/21 09:59:45;;;;;;;2.65;1.00;;;17.30;99.90;;;;;;5017151;28;20053;-67
2021/05/21 10:02:25;;;;;;;4.85;0.90;;;17.30;99.90;;;;;;5020366;28;20056;-66
2021/05/21 10:04:52;;;;;;;2.15;0.90;;;17.40;99.90;;;;;;5016773;28;20057;-67
2021/05/21 10:07:20;;;;;;;3.17;0.82;;;17.40;99.90;;;;;;5013882;28;20081;-67
2021/05/21 10:09:47;;;;;;;4.95;0.80;;;17.40;99.90;;;;;;5013379;28;20053;-66
2021/05/21 10:12:14;;;;;;;5.00;1.00;;;17.40;99.90;;;;;;5017690;28;20098;-67
2021/05/21 10:14:47;;;;;;;4.70;1.20;;;17.30;99.90;;;;;;5014299;28;20455;-67
2021/05/21 10:17:18;;;;;;;1.80;0.73;;;17.40;99.90;;;;;;5015083;28;20050;-67
2021/05/21 10:19:45;;;;;;;2.47;0.88;;;17.30;99.90;;;;;;5019428;28;20410;-66
2021/05/21 10:22:16;;;;;;;3.95;1.00;;;17.60;99.90;;;;;;5015945;28;20049;-67
2021/05/21 10:24:45;;;;;;;2.28;0.77;;;17.40;99.90;;;;;;5018330;28;20049;-66
2021/05/21 10:27:19;;;;;;;4.13;1.05;;;17.40;99.90;;;;;;5013649;28;20056;-67
2021/05/21 10:29:51;;;;;;;5.55;1.25;;;17.60;99.90;;;;;;5016821;28;20135;-67
2021/05/21 10:32:18;;;;;;;3.63;1.33;;;17.50;99.90;;;;;;5014139;28;20072;-68
2021/05/21 10:34:49;;;;;;;3.35;0.75;;;17.50;99.90;;;;;;5016222;28;20399;-67
2021/05/21 10:37:20;;;;;;;1.25;0.70;;;17.40;99.90;;;;;;5013154;28;20235;-67
2021/05/21 10:40:04;;;;;;;9.38;3.25;;;17.50;99.90;;;;;;5014289;28;20041;-67
2021/05/21 10:42:35;;;;;;;14.15;4.13;;;17.50;99.90;;;;;;5018327;28;20061;-67
2021/05/21 10:45:11;;;;;;;3.38;1.27;;;17.40;99.90;;;;;;5016439;28;20068;-66
2021/05/21 10:47:39;;;;;;;1.60;0.80;;;17.50;99.90;;;;;;5022463;28;20049;-67
2021/05/21 10:50:09;;;;;;;4.45;1.00;;;17.50;99.90;;;;;;5018812;28;20107;-67
2021/05/21 10:52:53;;;;;;;3.03;0.98;;;17.60;99.90;;;;;;5021729;28;20346;-66
2021/05/21 10:55:37;;;;;;;4.82;0.90;;;17.50;99.90;;;;;;5022774;28;20422;-66
2021/05/21 10:58:04;;;;;;;2.25;1.15;;;17.50;99.90;;;;;;5017576;28;20409;-67
2021/05/21 11:00:31;;;;;;;2.40;0.80;;;17.70;99.90;;;;;;5016682;28;20053;-66
2021/05/21 11:02:58;;;;;;;2.15;0.90;;;17.60;99.90;;;;;;5020251;28;20317;-66
2021/05/21 11:05:28;;;;;;;2.10;0.70;;;17.40;99.90;;;;;;5020577;28;20049;-67
2021/05/21 11:07:56;;;;;;;2.15;0.80;;;17.50;99.90;;;;;;5018403;28;20643;-67
2021/05/21 11:10:38;;;;;;;4.28;1.02;;;17.60;99.90;;;;;;5019098;28;20045;-67
2021/05/21 11:13:10;;;;;;;1.00;0.57;;;17.60;99.90;;;;;;5017030;28;20057;-67
2021/05/21 11:15:39;;;;;;;1.05;0.73;;;17.60;99.90;;;;;;5019104;28;20044;-66
2021/05/21 11:18:30;;;;;;;2.63;0.77;;;17.50;99.90;;;;;;5018240;28;20501;-66
2021/05/21 11:21:04;;;;;;;4.20;1.08;;;17.40;99.90;;;;;;5018602;28;20110;-66
2021/05/21 11:23:35;;;;;;;3.03;0.85;;;17.30;99.90;;;;;;5017129;28;20122;-66
2021/05/21 11:26:06;;;;;;;15.30;1.67;;;17.20;99.90;;;;;;5009342;28;20520;-66
2021/05/21 11:28:38;;;;;;;5.90;1.42;;;17.20;99.90;;;;;;5011710;28;20484;-66
2021/05/21 11:31:08;;;;;;;4.85;1.15;;;17.40;99.90;;;;;;5013706;28;20154;-66
2021/05/21 11:33:34;;;;;;;2.25;0.98;;;17.20;99.90;;;;;;5021735;28;20350;-68
2021/05/21 11:36:04;;;;;;;2.08;0.82;;;17.10;99.90;;;;;;5014634;28;20050;-67
2021/05/21 11:38:31;;;;;;;4.38;1.10;;;17.10;99.90;;;;;;5018309;28;20053;-68
2021/05/21 11:40:58;;;;;;;5.15;1.48;;;17.10;99.90;;;;;;5017944;28;20123;-67
2021/05/21 11:43:26;;;;;;;2.40;0.88;;;17.10;99.90;;;;;;5019683;28;20552;-67
2021/05/21 11:45:54;;;;;;;4.72;1.10;;;17.30;99.90;;;;;;5021360;28;21644;-67
2021/05/21 11:48:34;;;;;;;3.50;0.90;;;17.40;99.90;;;;;;5019625;28;20057;-67
2021/05/21 11:51:01;;;;;;;2.78;0.82;;;17.60;99.90;;;;;;5018917;28;20045;-67
2021/05/21 11:53:28;;;;;;;4.78;1.08;;;17.80;99.90;;;;;;5017836;28;20057;-67
2021/05/21 11:55:55;;;;;;;2.80;0.80;;;17.90;99.90;;;;;;5017414;28;20049;-67
2021/05/21 11:58:23;;;;;;;2.53;0.90;;;17.70;99.90;;;;;;5017294;28;20045;-67
2021/05/21 12:00:58;;;;;;;3.47;0.85;;;17.60;99.90;;;;;;5019154;28;20622;-67
2021/05/21 12:03:24;;;;;;;3.65;0.90;;;17.80;99.90;;;;;;5025889;28;20048;-67
2021/05/21 12:05:51;;;;;;;3.47;0.95;;;18.00;99.90;;;;;;5018572;28;20115;-67
2021/05/21 12:08:17;;;;;;;3.53;1.00;;;18.30;99.90;;;;;;5018502;28;20554;-67
2021/05/21 12:10:55;;;;;;;4.10;1.10;;;18.20;99.90;;;;;;5023966;28;20424;-67
2021/05/21 12:13:21;;;;;;;2.10;0.85;;;18.50;99.90;;;;;;5021356;28;20506;-67
2021/05/21 12:15:48;;;;;;;2.13;0.77;;;18.30;99.90;;;;;;5021805;28;20059;-67
2021/05/21 12:18:15;;;;;;;1.98;0.88;;;18.00;99.90;;;;;;5020729;28;20049;-67
2021/05/21 12:20:51;;;;;;;4.00;1.00;;;18.30;99.90;;;;;;5018206;28;20057;-67
2021/05/21 12:23:18;;;;;;;2.17;1.00;;;18.90;99.90;;;;;;5018362;28;20052;-68
2021/05/21 12:25:45;;;;;;;4.53;1.00;;;19.20;99.90;;;;;;5018495;28;20410;-67
2021/05/21 12:28:12;;;;;;;4.32;0.80;;;19.00;99.90;;;;;;5016920;28;20269;-67
2021/05/21 12:30:39;;;;;;;4.95;1.30;;;18.70;99.90;;;;;;5019533;28;20053;-68
2021/05/21 12:33:10;;;;;;;3.60;1.00;;;18.30;99.90;;;;;;5012214;28;20052;-68
2021/05/21 12:35:38;;;;;;;3.17;0.95;;;18.40;99.90;;;;;;5016605;28;20053;-67
2021/05/21 12:38:05;;;;;;;6.05;1.80;;;18.10;99.90;;;;;;5016248;28;20061;-68
2021/05/21 12:40:32;;;;;;;2.20;1.02;;;18.40;99.90;;;;;;5019907;28;20087;-68
2021/05/21 12:43:05;;;;;;;6.07;1.00;;;18.20;99.90;;;;;;5019288;28;20057;-67
2021/05/21 12:45:35;;;;;;;4.53;1.20;;;18.10;99.90;;;;;;5018583;28;20053;-67
2021/05/21 12:48:01;;;;;;;3.83;1.73;;;18.10;99.90;;;;;;5018379;28;20419;-68
2021/05/21 12:50:33;;;;;;;2.78;0.90;;;18.60;99.90;;;;;;5021124;28;20559;-68
2021/05/21 12:53:03;;;;;;;6.72;0.98;;;18.60;99.90;;;;;;5016807;28;20296;-68